createdAt,value
2023-02-08T00:00:07.482Z,46.80
2023-02-08T00:02:34.520Z,43.35
2023-02-08T00:05:01.331Z,45.83
2023-02-08T00:07:28.374Z,40.35
2023-02-08T00:09:55.164Z,37.95
2023-02-08T00:12:21.952Z,45.38
2023-02-08T00:14:48.681Z,50.80
2023-02-08T00:17:15.497Z,47.20
2023-02-08T00:19:42.301Z,54.47
2023-02-08T00:22:09.110Z,50.22
2023-02-08T00:24:35.980Z,53.15
2023-02-08T00:27:02.868Z,45.00
2023-02-08T00:29:29.755Z,45.78
2023-02-08T00:31:57.136Z,44.92
2023-02-08T00:34:23.971Z,42.28
2023-02-08T00:36:50.891Z,45.80
2023-02-08T00:39:17.789Z,45.53
2023-02-08T00:41:44.577Z,49.13
2023-02-08T00:44:11.319Z,43.30
2023-02-08T00:46:38.152Z,41.20
2023-02-08T00:49:05.206Z,45.15
2023-02-08T00:51:31.972Z,44.53
2023-02-08T00:53:58.763Z,47.15
2023-02-08T00:56:25.569Z,46.17
2023-02-08T00:58:52.317Z,52.92
2023-02-08T01:01:19.225Z,48.90
2023-02-08T01:03:46.003Z,45.70
2023-02-08T01:06:18.390Z,46.40
2023-02-08T01:08:45.387Z,44.25
2023-02-08T01:11:21.735Z,43.33
2023-02-08T01:13:49.722Z,52.67
2023-02-08T01:16:22.845Z,51.67
2023-02-08T01:18:52.028Z,45.25
2023-02-08T01:21:21.750Z,48.92
2023-02-08T01:23:49.191Z,40.97
2023-02-08T01:26:17.681Z,49.03
2023-02-08T01:28:44.768Z,45.25
2023-02-08T01:31:14.245Z,40.40
2023-02-08T01:33:42.135Z,52.08
2023-02-08T01:36:09.723Z,45.80
2023-02-08T01:38:37.997Z,49.17
2023-02-08T01:41:07.424Z,53.30
2023-02-08T01:44:00.398Z,46.15
2023-02-08T01:46:27.509Z,56.78
2023-02-08T01:48:58.052Z,55.45
2023-02-08T01:51:34.108Z,51.55
2023-02-08T01:54:03.565Z,48.80
2023-02-08T01:56:36.095Z,45.97
2023-02-08T01:59:08.777Z,55.53
2023-02-08T02:01:37.732Z,48.17
2023-02-08T02:04:07.144Z,48.22
2023-02-08T02:06:37.285Z,45.83
2023-02-08T02:09:17.660Z,48.92
2023-02-08T02:11:44.653Z,47.20
2023-02-08T02:14:12.059Z,50.58
2023-02-08T02:16:38.863Z,43.78
2023-02-08T02:19:12.358Z,48.80
2023-02-08T02:21:45.735Z,46.13
2023-02-08T02:24:54.603Z,40.25
2023-02-08T02:27:53.311Z,54.20
2023-02-08T02:30:53.664Z,45.22
2023-02-08T02:33:29.431Z,44.10
2023-02-08T02:36:05.565Z,42.45
2023-02-08T02:38:56.868Z,38.58
2023-02-08T02:42:11.197Z,41.60
2023-02-08T02:44:52.281Z,37.45
2023-02-08T02:47:52.191Z,48.33
2023-02-08T02:50:52.919Z,41.20
2023-02-08T02:53:36.214Z,43.70
2023-02-08T02:56:21.474Z,41.13
2023-02-08T02:58:49.539Z,37.67
2023-02-08T03:01:29.936Z,48.80
2023-02-08T03:03:57.945Z,49.80
2023-02-08T03:06:54.325Z,48.63
2023-02-08T03:09:42.545Z,53.58
2023-02-08T03:12:40.599Z,50.03
2023-02-08T03:15:27.816Z,56.78
2023-02-08T03:18:15.574Z,41.15
2023-02-08T03:20:50.700Z,51.80
2023-02-08T03:23:35.175Z,49.53
2023-02-08T03:26:20.825Z,45.00
2023-02-08T03:28:50.766Z,44.75
2023-02-08T03:31:26.851Z,48.38
2023-02-08T03:34:16.833Z,45.58
2023-02-08T03:37:11.398Z,41.90
2023-02-08T03:39:40.479Z,42.00
2023-02-08T03:42:13.878Z,49.88
2023-02-08T03:44:54.841Z,41.72
2023-02-08T03:47:24.707Z,42.55
2023-02-08T03:49:54.282Z,41.45
2023-02-08T03:52:22.570Z,45.83
2023-02-08T03:54:54.712Z,53.05
2023-02-08T03:57:28.666Z,52.90
2023-02-08T04:00:05.858Z,47.42
2023-02-08T04:02:37.534Z,46.88
2023-02-08T04:05:05.901Z,56.38
2023-02-08T04:07:32.968Z,42.58
2023-02-08T04:09:59.725Z,43.75
2023-02-08T04:12:26.477Z,55.00
2023-02-08T04:14:53.236Z,54.33
2023-02-08T04:17:20.017Z,69.82
2023-02-08T04:19:46.787Z,61.28
2023-02-08T04:22:13.693Z,59.90
2023-02-08T04:24:41.013Z,43.80
2023-02-08T04:27:07.815Z,46.53
2023-02-08T04:29:34.593Z,53.83
2023-02-08T04:32:01.388Z,44.80
2023-02-08T04:34:28.287Z,54.83
2023-02-08T04:36:55.064Z,40.67
2023-02-08T04:39:21.950Z,43.97
2023-02-08T04:41:48.819Z,42.10
2023-02-08T04:44:15.677Z,57.65
2023-02-08T04:46:42.444Z,39.47
2023-02-08T04:49:09.242Z,45.33
2023-02-08T04:51:36.084Z,48.60
2023-02-08T04:54:02.963Z,46.97
2023-02-08T04:56:29.745Z,48.40
2023-02-08T04:58:56.573Z,48.45
2023-02-08T05:01:23.481Z,65.88
2023-02-08T05:03:50.717Z,60.30
2023-02-08T05:06:17.544Z,48.92
2023-02-08T05:08:44.410Z,58.53
2023-02-08T05:11:11.263Z,67.85
2023-02-08T05:13:38.049Z,49.75
2023-02-08T05:16:05.158Z,47.75
2023-02-08T05:18:32.067Z,54.35
2023-02-08T05:21:00.789Z,45.50
2023-02-08T05:23:28.161Z,51.97
2023-02-08T05:25:54.990Z,51.58
2023-02-08T05:28:21.854Z,57.63
2023-02-08T05:30:48.826Z,50.65
2023-02-08T05:33:16.187Z,54.08
2023-02-08T05:35:45.158Z,51.80
2023-02-08T05:38:11.954Z,57.35
2023-02-08T05:40:39.082Z,59.53
2023-02-08T05:43:06.376Z,60.58
2023-02-08T05:45:33.201Z,50.67
2023-02-08T05:48:00.075Z,59.67
2023-02-08T05:50:27.658Z,54.80
2023-02-08T05:52:54.492Z,55.63
2023-02-08T05:55:21.336Z,72.95
2023-02-08T05:57:48.152Z,60.97
2023-02-08T06:00:15.661Z,51.22
2023-02-08T06:02:42.504Z,58.00
2023-02-08T06:05:09.319Z,56.95
2023-02-08T06:07:36.123Z,47.35
2023-02-08T06:10:03.871Z,47.47
2023-02-08T06:12:30.759Z,55.97
2023-02-08T06:14:57.584Z,55.28
2023-02-08T06:17:24.386Z,47.00
2023-02-08T06:19:51.250Z,48.97
2023-02-08T06:22:18.015Z,47.95
2023-02-08T06:24:44.856Z,49.33
2023-02-08T06:27:11.666Z,50.30
2023-02-08T06:29:38.470Z,55.10
2023-02-08T06:32:05.492Z,57.83
2023-02-08T06:34:32.354Z,60.42
2023-02-08T06:37:02.138Z,49.80
2023-02-08T06:39:29.768Z,56.65
2023-02-08T06:41:56.571Z,60.90
2023-02-08T06:44:23.840Z,56.35
2023-02-08T06:46:50.970Z,65.10
2023-02-08T06:49:17.736Z,54.75
2023-02-08T06:51:44.566Z,56.30
2023-02-08T06:54:11.468Z,60.70
2023-02-08T06:56:38.207Z,56.63
2023-02-08T06:59:05.026Z,61.50
2023-02-08T07:01:31.906Z,69.68
2023-02-08T07:03:58.686Z,71.70
2023-02-08T07:06:25.561Z,63.65
2023-02-08T07:08:52.335Z,67.10
2023-02-08T07:11:20.569Z,71.75
2023-02-08T07:13:51.704Z,63.70
2023-02-08T07:16:19.681Z,63.38
2023-02-08T07:18:46.789Z,72.15
2023-02-08T07:21:13.701Z,68.82
2023-02-08T07:23:40.830Z,68.93
2023-02-08T07:26:10.318Z,63.67
2023-02-08T07:28:38.067Z,64.35
2023-02-08T07:31:09.616Z,65.15
2023-02-08T07:33:37.277Z,72.32
2023-02-08T07:36:05.394Z,59.85
2023-02-08T07:38:33.760Z,67.97
2023-02-08T07:41:12.578Z,71.32
2023-02-08T07:43:40.600Z,73.35
2023-02-08T07:46:16.186Z,76.13
2023-02-08T07:48:43.187Z,75.32
2023-02-08T07:51:11.580Z,88.07
2023-02-08T07:53:38.662Z,80.38
2023-02-08T07:56:06.474Z,87.55
2023-02-08T07:58:33.270Z,75.00
2023-02-08T08:01:04.866Z,88.95
2023-02-08T08:03:39.672Z,74.47
2023-02-08T08:06:06.673Z,85.63
2023-02-08T08:08:33.580Z,84.72
2023-02-08T08:11:02.187Z,91.55
2023-02-08T08:13:30.514Z,95.55
2023-02-08T08:15:57.437Z,89.43
2023-02-08T08:18:24.296Z,87.80
2023-02-08T08:20:51.424Z,86.65
2023-02-08T08:23:19.606Z,81.85
2023-02-08T08:25:46.614Z,81.63
2023-02-08T08:28:13.661Z,87.72
2023-02-08T08:30:44.540Z,79.75
2023-02-08T08:33:13.994Z,84.20
2023-02-08T08:35:42.521Z,76.60
2023-02-08T08:38:09.820Z,87.18
2023-02-08T08:40:36.622Z,85.55
2023-02-08T08:43:03.342Z,84.75
2023-02-08T08:45:30.389Z,79.15
2023-02-08T08:47:57.241Z,75.72
2023-02-08T08:50:23.973Z,81.10
2023-02-08T08:52:50.736Z,87.22
2023-02-08T08:55:17.634Z,84.43
2023-02-08T08:57:44.453Z,80.97
2023-02-08T09:00:12.428Z,81.75
2023-02-08T09:02:39.217Z,79.93
2023-02-08T09:05:08.026Z,79.72
2023-02-08T09:07:35.337Z,79.22
2023-02-08T09:10:02.113Z,67.30
2023-02-08T09:12:29.253Z,78.72
2023-02-08T09:14:55.994Z,92.03
2023-02-08T09:17:22.940Z,78.15
2023-02-08T09:19:49.901Z,70.70
2023-02-08T09:22:16.717Z,77.28
2023-02-08T09:24:43.433Z,74.10
2023-02-08T09:27:10.212Z,73.38
2023-02-08T09:29:36.984Z,75.78
2023-02-08T09:32:03.774Z,68.75
2023-02-08T09:34:30.655Z,75.97
2023-02-08T09:36:57.560Z,79.55
2023-02-08T09:39:25.691Z,71.60
2023-02-08T09:42:01.749Z,64.25
2023-02-08T09:44:53.511Z,69.82
2023-02-08T09:47:22.542Z,64.82
2023-02-08T09:50:17.620Z,65.32
2023-02-08T09:53:11.639Z,65.60
2023-02-08T09:55:46.549Z,64.32
2023-02-08T09:58:34.435Z,56.10
2023-02-08T10:01:01.641Z,63.45
2023-02-08T10:03:34.545Z,66.78
2023-02-08T10:06:03.234Z,67.20
2023-02-08T10:08:35.347Z,56.03
2023-02-08T10:11:29.097Z,57.30
2023-02-08T10:14:26.522Z,61.15
2023-02-08T10:16:56.402Z,55.83
2023-02-08T10:19:23.141Z,56.08
2023-02-08T10:21:59.193Z,51.75
2023-02-08T10:24:51.801Z,53.17
2023-02-08T10:27:31.570Z,51.20
2023-02-08T10:30:16.871Z,47.78
2023-02-08T10:33:08.358Z,51.00
2023-02-08T10:35:44.354Z,51.30
2023-02-08T10:38:20.479Z,51.10
2023-02-08T10:40:52.188Z,49.08
2023-02-08T10:43:31.326Z,49.85
2023-02-08T10:46:03.965Z,44.92
2023-02-08T10:48:39.929Z,51.05
2023-02-08T10:51:09.812Z,48.33
2023-02-08T10:53:36.667Z,41.50
2023-02-08T10:56:04.676Z,47.35
2023-02-08T10:58:31.995Z,49.25
2023-02-08T11:01:00.006Z,44.08
2023-02-08T11:03:29.357Z,39.30
2023-02-08T11:05:56.836Z,43.95
2023-02-08T11:08:27.634Z,43.08
2023-02-08T11:11:00.282Z,45.17
2023-02-08T11:13:34.714Z,40.60
2023-02-08T11:16:05.886Z,44.53
2023-02-08T11:18:39.961Z,43.33
2023-02-08T11:21:11.933Z,39.70
2023-02-08T11:23:42.543Z,47.00
2023-02-08T11:26:20.407Z,46.10
2023-02-08T11:29:18.050Z,42.03
2023-02-08T11:32:02.770Z,43.55
2023-02-08T11:34:40.844Z,48.15
2023-02-08T11:37:28.559Z,45.08
2023-02-08T11:39:58.215Z,50.47
2023-02-08T11:42:28.981Z,39.50
2023-02-08T11:44:57.757Z,48.13
2023-02-08T11:47:34.055Z,38.95
2023-02-08T11:50:21.699Z,46.78
2023-02-08T11:52:57.688Z,45.33
2023-02-08T11:55:27.610Z,42.47
2023-02-08T11:58:00.080Z,41.92
2023-02-08T12:00:34.206Z,44.75
2023-02-08T12:03:16.001Z,49.88
2023-02-08T12:06:13.209Z,50.42
2023-02-08T12:08:58.177Z,45.80
2023-02-08T12:11:43.185Z,42.70
2023-02-08T12:14:45.913Z,40.00
2023-02-08T12:17:18.604Z,39.05
2023-02-08T12:20:15.874Z,40.83
2023-02-08T12:22:56.671Z,42.95
2023-02-08T12:25:36.148Z,42.72
2023-02-08T12:28:14.980Z,40.13
2023-02-08T12:31:04.507Z,48.13
2023-02-08T12:33:33.473Z,45.33
2023-02-08T12:36:39.043Z,43.80
2023-02-08T12:39:28.875Z,44.60
2023-02-08T12:42:11.821Z,44.40
2023-02-08T12:45:03.689Z,45.38
2023-02-08T12:48:04.054Z,43.25
2023-02-08T12:50:49.632Z,40.80
2023-02-08T12:53:37.525Z,40.75
2023-02-08T12:56:10.782Z,54.92
2023-02-08T12:59:11.722Z,48.17
2023-02-08T13:01:51.508Z,45.75
2023-02-08T13:04:26.601Z,36.90
2023-02-08T13:06:58.147Z,39.72
2023-02-08T13:09:35.496Z,41.80
2023-02-08T13:12:28.058Z,44.60
2023-02-08T13:15:05.329Z,41.22
2023-02-08T13:17:45.248Z,38.83
2023-02-08T13:20:30.966Z,37.38
2023-02-08T13:25:35.296Z,38.60
2023-02-08T13:28:04.362Z,35.30
2023-02-08T13:30:35.525Z,38.22
2023-02-08T13:33:18.264Z,39.90
2023-02-08T13:35:51.403Z,43.10
2023-02-08T13:38:30.557Z,40.50
2023-02-08T13:41:19.790Z,37.28
2023-02-08T13:43:54.815Z,36.17
2023-02-08T13:46:23.769Z,37.10
2023-02-08T13:48:53.394Z,40.95
2023-02-08T13:51:53.313Z,37.90
2023-02-08T13:54:20.427Z,35.60
2023-02-08T13:56:50.821Z,39.38
2023-02-08T13:59:36.335Z,47.15
2023-02-08T14:02:12.386Z,38.90
2023-02-08T14:04:44.195Z,39.33
2023-02-08T14:07:16.909Z,56.17
2023-02-08T14:09:46.315Z,48.30
2023-02-08T14:12:47.019Z,47.88
2023-02-08T14:15:16.505Z,46.38
2023-02-08T14:17:46.652Z,45.17
2023-02-08T14:20:26.423Z,46.85
2023-02-08T14:23:05.424Z,47.33
2023-02-08T14:25:47.827Z,44.10
2023-02-08T14:28:27.024Z,47.45
2023-02-08T14:30:57.639Z,51.97
2023-02-08T14:33:57.158Z,50.63
2023-02-08T14:36:35.065Z,53.10
2023-02-08T14:39:24.373Z,49.25
2023-02-08T14:41:54.680Z,40.50
2023-02-08T14:44:41.506Z,45.28
2023-02-08T14:47:35.280Z,52.50
2023-02-08T14:50:17.538Z,44.83
2023-02-08T14:53:00.971Z,42.95
2023-02-08T14:55:32.775Z,52.17
2023-02-08T14:58:01.129Z,56.28
2023-02-08T15:00:33.169Z,48.35
2023-02-08T15:03:01.604Z,36.20
2023-02-08T15:05:32.487Z,44.78
2023-02-08T15:08:03.940Z,41.20
2023-02-08T15:10:33.045Z,39.90
2023-02-08T15:13:06.476Z,47.40
2023-02-08T15:15:42.623Z,39.72
2023-02-08T15:18:19.333Z,47.70
2023-02-08T15:20:55.913Z,37.30
2023-02-08T15:23:24.477Z,40.17
2023-02-08T15:26:03.103Z,39.42
2023-02-08T15:28:32.047Z,44.40
2023-02-08T15:31:09.168Z,41.25
2023-02-08T15:33:39.536Z,48.45
2023-02-08T15:36:15.563Z,40.65
2023-02-08T15:38:46.472Z,46.65
2023-02-08T15:41:23.636Z,44.35
2023-02-08T15:43:50.645Z,40.53
2023-02-08T15:46:26.523Z,49.10
2023-02-08T15:48:54.798Z,42.72
2023-02-08T15:51:24.251Z,49.80
2023-02-08T15:53:54.699Z,47.35
2023-02-08T15:56:37.496Z,45.30
2023-02-08T15:59:08.883Z,50.75
2023-02-08T16:01:35.842Z,48.42
2023-02-08T16:04:12.580Z,41.38
2023-02-08T16:06:48.172Z,39.38
2023-02-08T16:09:28.647Z,43.97
2023-02-08T16:12:01.114Z,40.67
2023-02-08T16:14:30.241Z,42.75
2023-02-08T16:16:58.950Z,41.78
2023-02-08T16:19:33.641Z,47.05
2023-02-08T16:22:12.637Z,45.72
2023-02-08T16:24:39.501Z,46.05
2023-02-08T16:27:16.832Z,42.78
2023-02-08T16:29:47.689Z,41.33
2023-02-08T16:32:39.438Z,40.63
2023-02-08T16:35:26.578Z,48.47
2023-02-08T16:38:00.480Z,46.35
2023-02-08T16:40:51.380Z,43.72
2023-02-08T16:43:31.895Z,49.83
2023-02-08T16:46:10.853Z,50.70
2023-02-08T16:48:42.753Z,47.28
2023-02-08T16:51:22.028Z,48.50
2023-02-08T16:53:51.049Z,56.40
2023-02-08T16:56:18.178Z,54.85
2023-02-08T16:58:45.201Z,40.67
2023-02-08T17:01:14.154Z,49.65
2023-02-08T17:03:41.552Z,52.47
2023-02-08T17:06:35.565Z,50.30
2023-02-08T17:09:04.663Z,47.33
2023-02-08T17:11:32.385Z,56.38
2023-02-08T17:13:59.341Z,52.45
2023-02-08T17:16:29.022Z,56.60
2023-02-08T17:18:56.692Z,56.20
2023-02-08T17:21:23.561Z,53.67
2023-02-08T17:23:50.568Z,50.85
2023-02-08T17:26:24.125Z,55.83
2023-02-08T17:28:51.004Z,55.45
2023-02-08T17:31:17.916Z,58.33
2023-02-08T17:33:45.169Z,48.78
2023-02-08T17:36:14.847Z,52.88
2023-02-08T17:38:43.169Z,65.93
2023-02-08T17:41:14.491Z,63.65
2023-02-08T17:43:41.546Z,59.83
2023-02-08T17:46:11.125Z,61.63
2023-02-08T17:48:38.006Z,58.15
2023-02-08T17:51:16.058Z,62.10
2023-02-08T17:53:43.889Z,65.25
2023-02-08T17:56:13.321Z,67.43
2023-02-08T17:58:41.245Z,67.13
2023-02-08T18:01:10.123Z,55.47
2023-02-08T18:03:37.126Z,59.03
2023-02-08T18:06:06.185Z,60.03
2023-02-08T18:08:33.111Z,56.42
2023-02-08T18:11:05.069Z,61.00
2023-02-08T18:13:32.419Z,63.50
2023-02-08T18:15:59.171Z,64.75
2023-02-08T18:18:26.145Z,52.00
2023-02-08T18:20:52.894Z,61.03
2023-02-08T18:23:19.728Z,57.38
2023-02-08T18:25:46.607Z,59.55
2023-02-08T18:28:15.170Z,61.63
2023-02-08T18:30:42.587Z,72.10
2023-02-08T18:33:10.796Z,67.43
2023-02-08T18:35:37.976Z,65.03
2023-02-08T18:38:04.823Z,58.88
2023-02-08T18:40:32.333Z,71.63
2023-02-08T18:42:59.267Z,67.43
2023-02-08T18:45:26.082Z,64.90
2023-02-08T18:47:52.878Z,68.07
2023-02-08T18:50:19.732Z,58.85
2023-02-08T18:52:46.557Z,68.82
2023-02-08T18:55:13.399Z,68.30
2023-02-08T18:57:40.362Z,59.78
2023-02-08T19:00:07.769Z,70.00
2023-02-08T19:02:34.585Z,75.35
2023-02-08T19:05:01.392Z,69.65
2023-02-08T19:07:28.191Z,70.68
2023-02-08T19:09:55.036Z,70.47
2023-02-08T19:12:21.957Z,82.13
2023-02-08T19:14:50.753Z,64.00
2023-02-08T19:17:18.294Z,69.28
2023-02-08T19:19:45.461Z,70.40
2023-02-08T19:22:12.250Z,75.53
2023-02-08T19:24:39.062Z,77.15
2023-02-08T19:27:05.894Z,66.60
2023-02-08T19:29:34.548Z,73.10
2023-02-08T19:32:01.514Z,77.78
2023-02-08T19:34:28.412Z,77.55
2023-02-08T19:36:55.753Z,68.30
2023-02-08T19:39:26.012Z,76.30
2023-02-08T19:41:54.262Z,72.82
2023-02-08T19:44:21.943Z,75.80
2023-02-08T19:46:50.781Z,80.07
2023-02-08T19:49:18.322Z,81.95
2023-02-08T19:51:45.863Z,77.20
2023-02-08T19:54:15.476Z,71.18
2023-02-08T19:56:42.307Z,79.80
2023-02-08T19:59:23.718Z,77.15
2023-02-08T20:01:50.715Z,75.65
2023-02-08T20:04:17.572Z,72.18
2023-02-08T20:06:45.382Z,86.60
2023-02-08T20:09:15.319Z,75.95
2023-02-08T20:11:56.444Z,90.43
2023-02-08T20:14:25.753Z,73.53
2023-02-08T20:16:52.828Z,73.72
2023-02-08T20:19:19.639Z,72.70
2023-02-08T20:21:46.456Z,86.15
2023-02-08T20:24:13.881Z,78.15
2023-02-08T20:26:42.728Z,73.03
2023-02-08T20:29:09.955Z,80.88
2023-02-08T20:31:38.428Z,80.05
2023-02-08T20:34:08.752Z,72.50
2023-02-08T20:36:40.523Z,70.15
2023-02-08T20:39:11.114Z,74.50
2023-02-08T20:41:38.406Z,76.53
2023-02-08T20:44:05.683Z,88.05
2023-02-08T20:46:34.804Z,72.55
2023-02-08T20:49:04.110Z,77.47
2023-02-08T20:51:31.533Z,86.28
2023-02-08T20:54:00.372Z,81.28
2023-02-08T20:56:33.242Z,84.25
2023-02-08T20:59:08.988Z,81.60
2023-02-08T21:01:36.691Z,78.38
2023-02-08T21:04:04.813Z,80.90
2023-02-08T21:06:36.800Z,85.80
2023-02-08T21:09:06.748Z,79.15
2023-02-08T21:11:34.554Z,79.55
2023-02-08T21:14:02.183Z,78.55
2023-02-08T21:16:29.695Z,76.97
2023-02-08T21:18:59.150Z,81.20
2023-02-08T21:21:26.552Z,75.10
2023-02-08T21:23:53.476Z,84.70
2023-02-08T21:26:21.432Z,76.38
2023-02-08T21:28:51.948Z,76.60
2023-02-08T21:31:22.266Z,90.40
2023-02-08T21:33:49.837Z,78.40
2023-02-08T21:36:19.918Z,71.15
2023-02-08T21:38:47.403Z,88.35
2023-02-08T21:41:23.489Z,77.15
2023-02-08T21:43:52.980Z,68.70
2023-02-08T21:46:20.023Z,72.60
2023-02-08T21:49:05.782Z,78.15
2023-02-08T21:51:51.385Z,78.70
2023-02-08T21:54:29.650Z,76.15
2023-02-08T21:56:59.367Z,74.63
2023-02-08T21:59:26.694Z,75.38
2023-02-08T22:01:53.547Z,73.93
2023-02-08T22:04:20.498Z,67.32
2023-02-08T22:06:48.856Z,70.35
2023-02-08T22:09:20.291Z,77.40
2023-02-08T22:11:50.339Z,72.25
2023-02-08T22:14:17.212Z,64.22
2023-02-08T22:16:44.013Z,73.47
2023-02-08T22:19:10.873Z,71.70
2023-02-08T22:21:37.668Z,69.75
2023-02-08T22:24:04.700Z,78.60
2023-02-08T22:26:31.580Z,74.25
2023-02-08T22:28:58.551Z,68.95
2023-02-08T22:31:25.647Z,69.30
2023-02-08T22:33:53.554Z,60.22
2023-02-08T22:36:20.896Z,65.00
2023-02-08T22:38:47.780Z,60.85
2023-02-08T22:41:16.941Z,69.80
2023-02-08T22:43:44.919Z,67.70
2023-02-08T22:46:11.798Z,71.95
2023-02-08T22:48:38.790Z,71.82
2023-02-08T22:51:10.888Z,72.38
2023-02-08T22:53:37.762Z,66.82
2023-02-08T22:56:05.026Z,70.68
2023-02-08T22:58:31.945Z,66.13
2023-02-08T23:01:01.429Z,71.38
2023-02-08T23:03:28.349Z,70.78
2023-02-08T23:05:55.122Z,71.65
2023-02-08T23:08:22.976Z,63.13
2023-02-08T23:10:50.229Z,69.35
2023-02-08T23:13:17.103Z,67.30
2023-02-08T23:15:45.135Z,71.47
2023-02-08T23:18:12.363Z,62.22
2023-02-08T23:20:42.289Z,73.28
2023-02-08T23:23:09.196Z,63.38
2023-02-08T23:25:42.324Z,67.13
2023-02-08T23:28:11.581Z,59.78
2023-02-08T23:30:43.052Z,63.03
2023-02-08T23:33:10.132Z,59.80
2023-02-08T23:35:40.798Z,59.47
2023-02-08T23:38:09.080Z,68.63
2023-02-08T23:40:35.927Z,62.53
2023-02-08T23:43:03.789Z,65.47
2023-02-08T23:45:30.828Z,57.90
2023-02-08T23:47:57.660Z,64.82
2023-02-08T23:50:24.549Z,61.00
2023-02-08T23:52:51.455Z,67.18
2023-02-08T23:55:18.267Z,73.28
2023-02-08T23:57:45.059Z,67.13
